LIBQ 
Monte Scuro Airport
Italy 
ICAOStatus
LIBQOperational
LatitudeLongitude
39° 19' 12" N16° 22' 47" E
39.32000016.380000
Local Time (DST+2)UTC (GMT+1)
04-24-2014 04:05 am04-24-2014 02:05
Sunrise-SunsetLocalUTC
Begin Civil Twilight05:34 am03:34
Sunrise06:02 am04:02
Sunset07:42 pm17:42
End Civil Twilight08:10 pm18:10

Current Weather

METARObservedFlight Conditions

LIBQ 232055Z 06008KT 5000 BR SCT007 05/05 Q1011

Wed, Apr 23, 2014 @ 20:55 UTC(Z)

(5 Hours, 10 Minutes ago)

MVFR

(Marginal Visual Flight Rules)

WindVisibilityCloudsConditions
060° at 8 knots (15 kph)
5000 meters
  • Scattered at 700' AGL
  • Mist
TemperaturesReadingsPrecipitation
Current Temp5°C (41°F)
Dewpoint5°C (41°F)
Humidity100%
Altimeter29.85"Hg
Sea Level Pressure1011mb
Field Elevation5643.04'
None Recorded

Additional weather within a 92.6km radius of LIBQ

Location METAR
LICA

47.6km S (195°)

1 hour, 15 minutes ago
LIBC

70.2km E (121°)

6 hours, 15 minutes ago
VFR VFR    MVFR MVFR    IFR IFR    LIFR LIFR    Unknown Unknown

Previous 24 hour Weather Graphs

  Loading...

CheckWX.com is intended as a tool to help pilots better visualize weather data.   It is not intended as a substitute for an official weather briefing obtained from a Flight Service Station.
CheckWX.com does not meet the FAA requirements for an official pre-flight weather briefing.   Therefore, it's important that pilots still call and obtain an official FSS pre-flight weather briefing.